| time (UTC) | temp C | wind direction | speed KPH | gust KPH | rain 1hr cm | rain 24hr cm | rain mn cm | humidity % | barometer mb |
| 20260504193835 | 26 | 140 | 16.1 | 22.5 | 0.00 | 0.00 | 0.00 | 38 | 1014.1 |
| 20260504193337 | 26 | 248 | 14.5 | 17.7 | 0.00 | 0.00 | 0.00 | 39 | 1014.1 |
| 20260504192834 | 25 | 254 | 14.5 | 16.1 | 0.00 | 0.00 | 0.00 | 38 | 1014.2 |
| 20260504192334 | 26 | 230 | 14.5 | 17.7 | 0.00 | 0.00 | 0.00 | 39 | 1014.3 |
| 20260504191834 | 26 | 223 | 3.2 | 14.5 | 0.00 | 0.00 | 0.00 | 40 | 1014.3 |
| 20260504191334 | 26 | 263 | 12.9 | 12.9 | 0.00 | 0.00 | 0.00 | 43 | 1014.4 |
| 20260504190834 | 25 | 263 | 9.7 | 19.3 | 0.00 | 0.00 | 0.00 | 39 | 1014.5 |
| 20260504190334 | 25 | 262 | 11.3 | 14.5 | 0.00 | 0.00 | 0.00 | 41 | 1014.5 |
| 20260504185834 | 25 | 243 | 6.4 | 14.5 | 0.00 | 0.00 | 0.00 | 41 | 1014.5 |
| 20260504185334 | 25 | 254 | 6.4 | 16.1 | 0.00 | 0.00 | 0.00 | 41 | 1014.5 |
| 20260504184834 | 25 | 265 | 9.7 | 22.5 | 0.00 | 0.00 | 0.00 | 41 | 1014.7 |
| 20260504184337 | 25 | 229 | 4.8 | 19.3 | 0.00 | 0.00 | 0.00 | 40 | 1014.8 |
| 20260504183834 | 25 | 262 | 9.7 | 14.5 | 0.00 | 0.00 | 0.00 | 41 | 1014.8 |
| 20260504183337 | 25 | 188 | 4.8 | 11.3 | 0.00 | 0.00 | 0.00 | 43 | 1014.8 |
| 20260504182837 | 25 | 242 | 3.2 | 17.7 | 0.00 | 0.00 | 0.00 | 44 | 1014.8 |
| 20260504182337 | 25 | 207 | 6.4 | 17.7 | 0.00 | 0.00 | 0.00 | 44 | 1014.8 |
| 20260504181834 | 24 | 234 | 4.8 | 6.4 | 0.00 | 0.00 | 0.00 | 44 | 1014.8 |
| 20260504181334 | 24 | 254 | 1.6 | 11.3 | 0.00 | 0.00 | 0.00 | 40 | 1014.7 |
| 20260504180837 | 25 | 200 | 1.6 | 17.7 | 0.00 | 0.00 | 0.00 | 44 | 1014.8 |
| 20260504180337 | 25 | 177 | 16.1 | 20.9 | 0.00 | 0.00 | 0.00 | 43 | 1014.8 |
| 20260504175837 | 25 | 213 | 6.4 | 25.7 | 0.00 | 0.00 | 0.00 | 46 | 1014.8 |
| 20260504175337 | 25 | 216 | 4.8 | 14.5 | 0.00 | 0.00 | 0.00 | 43 | 1014.8 |
| 20260504174837 | 25 | 236 | 3.2 | 17.7 | 0.00 | 0.00 | 0.00 | 42 | 1014.9 |
| 20260504174334 | 25 | 190 | 4.8 | 19.3 | 0.00 | 0.00 | 0.00 | 44 | 1015.0 |
| 20260504173834 | 24 | 178 | 3.2 | 6.4 | 0.00 | 0.00 | 0.00 | 47 | 1014.9 |
| 20260504173337 | 24 | 203 | 4.8 | 24.1 | 0.00 | 0.00 | 0.00 | 43 | 1015.0 |
| 20260504172837 | 24 | 248 | 12.9 | 16.1 | 0.00 | 0.00 | 0.00 | 44 | 1014.8 |
| 20260504172334 | 23 | 178 | 8.0 | 20.9 | 0.00 | 0.00 | 0.00 | 47 | 1014.9 |
| 20260504171834 | 23 | 184 | 9.7 | 19.3 | 0.00 | 0.00 | 0.00 | 44 | 1015.1 |
| 20260504171334 | 23 | 216 | 8.0 | 14.5 | 0.00 | 0.00 | 0.00 | 46 | 1015.2 |
| 20260504170837 | 23 | 177 | 11.3 | 12.9 | 0.00 | 0.00 | 0.00 | 43 | 1015.3 |
| 20260504170337 | 23 | 242 | 4.8 | 16.1 | 0.00 | 0.00 | 0.00 | 44 | 1015.4 |
| 20260504160337 | 22 | 259 | 6.4 | 19.3 | 0.00 | 0.00 | 0.00 | 46 | 1016.4 |
| 20260504150834 | 20 | 285 | 6.4 | 17.7 | 0.00 | 0.00 | 0.00 | 50 | 1016.8 |
| 20260504150337 | 20 | 183 | 16.1 | 17.7 | 0.00 | 0.00 | 0.00 | 49 | 1016.8 |
| 20260504140837 | 17 | 238 | 4.8 | 9.7 | 0.00 | 0.00 | 0.00 | 69 | 1016.6 |
| 20260504140334 | 17 | 159 | 6.4 | 8.0 | 0.00 | 0.00 | 0.00 | 71 | 1016.6 |
| 20260504130334 | 13 | 159 | 3.2 | 8.0 | 0.00 | 0.00 | 0.00 | 79 | 1016.6 |
| 20260504110334 | 4 | 194 | 0.0 | 1.6 | 0.00 | 0.00 | 0.00 | 90 | 1016.6 |
| 20260504100337 | 5 | 194 | 0.0 | 0.0 | 0.00 | 0.00 | 0.00 | 89 | 1016.8 |
| 20260504081837 | 5 | 194 | 0.0 | 0.0 | 0.00 | 0.00 | 0.00 | 88 | 1016.8 |
| 20260504081334 | 5 | 194 | 0.0 | 0.0 | 0.00 | 0.00 | 0.00 | 88 | 1016.7 |
| 20260504080834 | 5 | 194 | 0.0 | 0.0 | 0.00 | 0.00 | 0.00 | 88 | 1016.7 |
| 20260504080334 | 5 | 194 | 0.0 | 0.0 | 0.00 | 0.00 | 0.00 | 88 | 1016.8 |
| 20260504070337 | 6 | 194 | 0.0 | 0.0 | 0.00 | 0.00 | 0.00 | 88 | 1017.0 |
| 20260504050334 | 7 | 194 | 0.0 | 3.2 | 0.00 | 0.00 | 0.00 | 84 | 1017.4 |
| 20260504045834 | 7 | 194 | 0.0 | 0.0 | 0.00 | 0.00 | 0.00 | 84 | 1017.3 |
| 20260504045337 | 7 | 194 | 0.0 | 0.0 | 0.00 | 0.00 | 0.00 | 83 | 1017.2 |
| 20260504044834 | 7 | 194 | 0.0 | 0.0 | 0.00 | 0.00 | 0.00 | 83 | 1017.2 |
| 20260504044334 | 7 | 194 | 0.0 | 0.0 | 0.00 | 0.00 | 0.00 | 83 | 1017.2 |
| 20260504043834 | 7 | 194 | 0.0 | 0.0 | 0.00 | 0.00 | 0.00 | 83 | 1017.2 |
| 20260504043337 | 7 | 194 | 0.0 | 0.0 | 0.00 | 0.00 | 0.00 | 83 | 1017.1 |
| 20260504042837 | 7 | 194 | 0.0 | 0.0 | 0.00 | 0.00 | 0.00 | 83 | 1017.0 |
| 20260504042334 | 7 | 194 | 0.0 | 3.2 | 0.00 | 0.00 | 0.00 | 82 | 1017.0 |
| 20260504041834 | 7 | 194 | 0.0 | 3.2 | 0.00 | 0.00 | 0.00 | 82 | 1017.0 |
| 20260504041334 | 8 | 194 | 0.0 | 3.2 | 0.00 | 0.00 | 0.00 | 82 | 1017.0 |
| 20260504040834 | 8 | 194 | 0.0 | 0.0 | 0.00 | 0.00 | 0.00 | 81 | 1017.1 |
| 20260504040334 | 8 | 194 | 0.0 | 0.0 | 0.00 | 0.00 | 0.00 | 81 | 1017.2 |
| 20260504035834 | 8 | 194 | 0.0 | 0.0 | 0.00 | 0.00 | 0.00 | 82 | 1017.2 |
| 20260504035337 | 8 | 194 | 0.0 | 0.0 | 0.00 | 0.00 | 0.00 | 81 | 1017.2 |
| 20260504034834 | 8 | 194 | 0.0 | 0.0 | 0.00 | 0.00 | 0.00 | 80 | 1017.1 |
| 20260504034337 | 8 | 194 | 0.0 | 0.0 | 0.00 | 0.00 | 0.00 | 79 | 1017.1 |
| 20260504033837 | 8 | 194 | 0.0 | 0.0 | 0.00 | 0.00 | 0.00 | 78 | 1017.2 |
| 20260504033337 | 8 | 194 | 0.0 | 0.0 | 0.00 | 0.00 | 0.00 | 78 | 1017.3 |
| 20260504032834 | 8 | 194 | 0.0 | 0.0 | 0.00 | 0.00 | 0.00 | 76 | 1017.3 |
| 20260504032334 | 8 | 194 | 0.0 | 0.0 | 0.00 | 0.00 | 0.00 | 76 | 1017.3 |
| 20260504031837 | 8 | 194 | 0.0 | 0.0 | 0.00 | 0.00 | 0.00 | 76 | 1017.3 |
| 20260504031337 | 8 | 194 | 0.0 | 3.2 | 0.00 | 0.00 | 0.00 | 76 | 1017.3 |
| 20260504030837 | 8 | 194 | 1.6 | 1.6 | 0.00 | 0.00 | 0.00 | 75 | 1017.2 |
| 20260504030337 | 8 | 194 | 0.0 | 1.6 | 0.00 | 0.00 | 0.00 | 73 | 1017.4 |
| 20260504025837 | 9 | 194 | 0.0 | 3.2 | 0.00 | 0.00 | 0.00 | 73 | 1017.5 |
| 20260504025334 | 9 | 194 | 0.0 | 0.0 | 0.00 | 0.00 | 0.00 | 72 | 1017.4 |
| 20260504024834 | 9 | 194 | 0.0 | 0.0 | 0.00 | 0.00 | 0.00 | 71 | 1017.3 |
| 20260504024334 | 9 | 194 | 0.0 | 0.0 | 0.00 | 0.00 | 0.00 | 70 | 1017.4 |
| 20260504023837 | 10 | 194 | 0.0 | 0.0 | 0.00 | 0.00 | 0.00 | 69 | 1017.2 |
| 20260504023337 | 10 | 194 | 0.0 | 0.0 | 0.00 | 0.00 | 0.00 | 69 | 1017.2 |
| 20260504022837 | 10 | 194 | 0.0 | 0.0 | 0.00 | 0.00 | 0.00 | 68 | 1017.1 |
| 20260504022337 | 10 | 194 | 0.0 | 0.0 | 0.00 | 0.00 | 0.00 | 68 | 1017.1 |
| 20260504021834 | 10 | 194 | 0.0 | 0.0 | 0.00 | 0.00 | 0.00 | 67 | 1017.0 |
| 20260504021334 | 10 | 194 | 0.0 | 0.0 | 0.00 | 0.00 | 0.00 | 67 | 1016.9 |
| 20260504020837 | 10 | 194 | 0.0 | 0.0 | 0.00 | 0.00 | 0.00 | 67 | 1016.8 |
| 20260504020337 | 11 | 194 | 0.0 | 0.0 | 0.00 | 0.00 | 0.00 | 66 | 1016.8 |
| 20260504015834 | 11 | 194 | 0.0 | 0.0 | 0.00 | 0.00 | 0.00 | 66 | 1016.7 |
| 20260504015337 | 11 | 194 | 0.0 | 0.0 | 0.00 | 0.00 | 0.00 | 64 | 1016.6 |
| 20260504014837 | 11 | 194 | 0.0 | 0.0 | 0.00 | 0.00 | 0.00 | 64 | 1016.6 |
| 20260504014337 | 11 | 194 | 0.0 | 0.0 | 0.00 | 0.00 | 0.00 | 63 | 1016.6 |
| 20260504013834 | 11 | 194 | 0.0 | 0.0 | 0.00 | 0.00 | 0.00 | 63 | 1016.5 |
| 20260504013337 | 12 | 194 | 0.0 | 0.0 | 0.00 | 0.00 | 0.00 | 62 | 1016.4 |
| 20260504012834 | 12 | 194 | 0.0 | 0.0 | 0.00 | 0.00 | 0.00 | 61 | 1016.5 |
| 20260504012337 | 12 | 194 | 0.0 | 0.0 | 0.00 | 0.00 | 0.00 | 60 | 1016.5 |
| 20260504011834 | 12 | 194 | 0.0 | 0.0 | 0.00 | 0.00 | 0.00 | 58 | 1016.4 |
| 20260504011337 | 12 | 194 | 0.0 | 0.0 | 0.00 | 0.00 | 0.00 | 57 | 1016.3 |
| 20260504010834 | 13 | 194 | 0.0 | 0.0 | 0.00 | 0.00 | 0.00 | 56 | 1016.2 |
| 20260504010334 | 13 | 194 | 0.0 | 1.6 | 0.00 | 0.00 | 0.00 | 56 | 1016.2 |
| 20260504005837 | 13 | 194 | 0.0 | 1.6 | 0.00 | 0.00 | 0.00 | 55 | 1016.2 |
| 20260504005337 | 13 | 194 | 0.0 | 0.0 | 0.00 | 0.00 | 0.00 | 54 | 1016.2 |
| 20260504004834 | 14 | 194 | 0.0 | 1.6 | 0.00 | 0.00 | 0.00 | 53 | 1016.2 |
| 20260504004337 | 14 | 194 | 0.0 | 0.0 | 0.00 | 0.00 | 0.00 | 52 | 1016.1 |
| 20260504003834 | 14 | 194 | 0.0 | 0.0 | 0.00 | 0.00 | 0.00 | 52 | 1016.0 |
| 20260504003334 | 15 | 194 | 0.0 | 1.6 | 0.00 | 0.00 | 0.00 | 49 | 1016.0 |
| 20260504002834 | 16 | 194 | 0.0 | 3.2 | 0.00 | 0.00 | 0.00 | 47 | 1016.0 |
| 20260504002334 | 16 | 194 | 0.0 | 0.0 | 0.00 | 0.00 | 0.00 | 46 | 1015.9 |
| 20260504001834 | 16 | 194 | 0.0 | 1.6 | 0.00 | 0.00 | 0.00 | 45 | 1015.9 |
| 20260504001334 | 17 | 194 | 0.0 | 3.2 | 0.00 | 0.00 | 0.00 | 44 | 1015.8 |
| 20260504000834 | 17 | 194 | 1.6 | 4.8 | 0.00 | 0.00 | 0.00 | 42 | 1015.7 |
| 20260504000337 | 17 | 194 | 0.0 | 3.2 | 0.00 | 0.00 | 0.00 | 41 | 1015.7 |
| 20260503235837 | 17 | 194 | 1.6 | 1.6 | 0.00 | 0.00 | 0.00 | 40 | 1015.7 |
| 20260503235334 | 17 | 186 | 0.0 | 6.4 | 0.00 | 0.00 | 0.00 | 40 | 1015.8 |
| 20260503234837 | 18 | 186 | 0.0 | 4.8 | 0.00 | 0.00 | 0.00 | 39 | 1015.7 |
| 20260503234334 | 18 | 186 | 1.6 | 4.8 | 0.00 | 0.00 | 0.00 | 39 | 1015.7 |
| 20260503233834 | 18 | 186 | 3.2 | 6.4 | 0.00 | 0.00 | 0.00 | 37 | 1015.7 |
| 20260503233337 | 18 | 200 | 3.2 | 6.4 | 0.00 | 0.00 | 0.00 | 38 | 1015.7 |
| 20260503232837 | 18 | 202 | 1.6 | 4.8 | 0.00 | 0.00 | 0.00 | 38 | 1015.8 |
| 20260503232334 | 18 | 208 | 3.2 | 4.8 | 0.00 | 0.00 | 0.00 | 37 | 1015.8 |
| 20260503231837 | 18 | 208 | 1.6 | 4.8 | 0.00 | 0.00 | 0.00 | 36 | 1015.7 |
| 20260503231334 | 18 | 208 | 3.2 | 6.4 | 0.00 | 0.00 | 0.00 | 35 | 1015.7 |
| 20260503230837 | 18 | 207 | 4.8 | 9.7 | 0.00 | 0.00 | 0.00 | 36 | 1015.7 |
| 20260503230337 | 18 | 202 | 3.2 | 4.8 | 0.00 | 0.00 | 0.00 | 37 | 1015.7 |
| 20260503225837 | 18 | 203 | 1.6 | 17.7 | 0.00 | 0.00 | 0.00 | 37 | 1015.7 |
| 20260503225334 | 18 | 186 | 12.9 | 12.9 | 0.00 | 0.00 | 0.00 | 38 | 1015.8 |
| 20260503224837 | 18 | 202 | 4.8 | 11.3 | 0.00 | 0.00 | 0.00 | 35 | 1015.8 |
| 20260503224337 | 18 | 136 | 4.8 | 16.1 | 0.00 | 0.00 | 0.00 | 35 | 1015.9 |
| 20260503223834 | 19 | 181 | 6.4 | 16.1 | 0.00 | 0.00 | 0.00 | 35 | 1015.9 |
| 20260503223334 | 19 | 134 | 11.3 | 14.5 | 0.00 | 0.00 | 0.00 | 36 | 1015.9 |
| 20260503222837 | 19 | 196 | 1.6 | 11.3 | 0.00 | 0.00 | 0.00 | 35 | 1015.9 |
| 20260503222334 | 19 | 209 | 4.8 | 16.1 | 0.00 | 0.00 | 0.00 | 37 | 1015.9 |
| 20260503221834 | 19 | 221 | 6.4 | 12.9 | 0.00 | 0.00 | 0.00 | 36 | 1015.9 |
| 20260503221337 | 19 | 155 | 9.7 | 19.3 | 0.00 | 0.00 | 0.00 | 36 | 1015.9 |
| 20260503220834 | 19 | 192 | 6.4 | 14.5 | 0.00 | 0.00 | 0.00 | 37 | 1016.0 |
| 20260503220337 | 19 | 186 | 6.4 | 16.1 | 0.00 | 0.00 | 0.00 | 37 | 1016.1 |
| 20260503215834 | 19 | 193 | 12.9 | 24.1 | 0.00 | 0.00 | 0.00 | 37 | 1016.1 |
| 20260503215334 | 19 | 221 | 6.4 | 17.7 | 0.00 | 0.00 | 0.00 | 36 | 1016.2 |
| 20260503214834 | 19 | 199 | 9.7 | 12.9 | 0.00 | 0.00 | 0.00 | 36 | 1016.3 |
| 20260503214337 | 19 | 220 | 4.8 | 16.1 | 0.00 | 0.00 | 0.00 | 36 | 1016.4 |
| 20260503213834 | 20 | 240 | 14.5 | 19.3 | 0.00 | 0.00 | 0.00 | 35 | 1016.4 |
| 20260503213337 | 20 | 273 | 9.7 | 14.5 | 0.00 | 0.00 | 0.00 | 36 | 1016.4 |
| 20260503212837 | 20 | 204 | 3.2 | 20.9 | 0.00 | 0.00 | 0.00 | 36 | 1016.4 |
| 20260503212334 | 20 | 161 | 9.7 | 9.7 | 0.00 | 0.00 | 0.00 | 39 | 1016.4 |
| 20260503211837 | 20 | 261 | 4.8 | 14.5 | 0.00 | 0.00 | 0.00 | 36 | 1016.5 |
| 20260503211337 | 20 | 255 | 6.4 | 14.5 | 0.00 | 0.00 | 0.00 | 34 | 1016.5 |
| 20260503210834 | 20 | 271 | 12.9 | 16.1 | 0.00 | 0.00 | 0.00 | 34 | 1016.4 |
| 20260503210337 | 20 | 197 | 4.8 | 12.9 | 0.00 | 0.00 | 0.00 | 38 | 1016.4 |
| 20260503205837 | 20 | 231 | 8.0 | 16.1 | 0.00 | 0.00 | 0.00 | 36 | 1016.4 |
| 20260503205337 | 20 | 272 | 3.2 | 14.5 | 0.00 | 0.00 | 0.00 | 33 | 1016.4 |
| 20260503204834 | 20 | 261 | 3.2 | 16.1 | 0.00 | 0.00 | 0.00 | 35 | 1016.5 |
| 20260503204337 | 20 | 231 | 8.0 | 12.9 | 0.00 | 0.00 | 0.00 | 35 | 1016.5 |
| 20260503203834 | 20 | 186 | 6.4 | 9.7 | 0.00 | 0.00 | 0.00 | 41 | 1016.6 |
| 20260503203334 | 20 | 212 | 4.8 | 12.9 | 0.00 | 0.00 | 0.00 | 35 | 1016.6 |
| 20260503202834 | 20 | 271 | 6.4 | 16.1 | 0.00 | 0.00 | 0.00 | 34 | 1016.7 |
| 20260503202334 | 20 | 260 | 16.1 | 25.7 | 0.00 | 0.00 | 0.00 | 35 | 1016.7 |
| 20260503201837 | 20 | 236 | 3.2 | 12.9 | 0.00 | 0.00 | 0.00 | 37 | 1016.7 |
| 20260503201337 | 19 | 277 | 4.8 | 11.3 | 0.00 | 0.00 | 0.00 | 34 | 1016.9 |
| 20260503200834 | 19 | 284 | 3.2 | 11.3 | 0.00 | 0.00 | 0.00 | 36 | 1016.9 |
| 20260503200337 | 18 | 239 | 1.6 | 9.7 | 0.00 | 0.00 | 0.00 | 39 | 1017.0 |
| 20260503195834 | 18 | 228 | 1.6 | 9.7 | 0.00 | 0.00 | 0.00 | 37 | 1017.1 |
| 20260503195337 | 18 | 209 | 8.0 | 11.3 | 0.00 | 0.00 | 0.00 | 34 | 1017.2 |
| 20260503194834 | 18 | 178 | 6.4 | 12.9 | 0.00 | 0.00 | 0.00 | 35 | 1017.2 |
| 20260503194337 | 18 | 251 | 12.9 | 19.3 | 0.00 | 0.00 | 0.00 | 34 | 1017.3 |